createdAt,value
2018-10-07T00:00:11.237Z,99.90
2018-10-07T00:02:40.533Z,99.90
2018-10-07T00:05:09.931Z,99.90
2018-10-07T00:07:39.839Z,99.90
2018-10-07T00:10:09.765Z,99.90
2018-10-07T00:12:39.983Z,99.90
2018-10-07T00:15:11.030Z,99.90
2018-10-07T00:17:41.793Z,99.90
2018-10-07T00:20:11.608Z,99.90
2018-10-07T00:22:41.680Z,99.90
2018-10-07T00:25:11.820Z,99.90
2018-10-07T00:27:48.523Z,99.90
2018-10-07T00:30:18.486Z,99.90
2018-10-07T00:32:48.309Z,99.90
2018-10-07T00:35:21.138Z,99.90
2018-10-07T00:37:50.689Z,99.90
2018-10-07T00:40:21.222Z,99.90
2018-10-07T00:42:52.953Z,99.90
2018-10-07T00:45:22.423Z,99.90
2018-10-07T00:47:51.512Z,99.90
2018-10-07T00:50:23.479Z,99.90
2018-10-07T00:52:53.216Z,99.90
2018-10-07T00:55:25.138Z,99.90
2018-10-07T00:58:01.157Z,99.90
2018-10-07T01:00:37.295Z,99.90
2018-10-07T01:03:16.185Z,99.90
2018-10-07T01:08:27.659Z,99.90
2018-10-07T01:10:58.216Z,99.90
2018-10-07T01:13:35.645Z,99.90
2018-10-07T01:16:12.395Z,99.90
2018-10-07T01:18:45.869Z,99.90
2018-10-07T01:21:16.130Z,99.90
2018-10-07T01:23:56.234Z,99.90
2018-10-07T01:26:29.256Z,99.90
2018-10-07T01:29:02.441Z,99.90
2018-10-07T01:31:33.154Z,99.90
2018-10-07T01:34:03.767Z,99.90
2018-10-07T01:36:33.648Z,99.90
2018-10-07T01:39:04.685Z,99.90
2018-10-07T01:41:35.523Z,99.90
2018-10-07T01:44:08.402Z,99.90
2018-10-07T01:59:49.531Z,99.90
2018-10-07T02:02:20.691Z,99.90
2018-10-07T02:04:56.666Z,99.90
2018-10-07T02:10:38.749Z,99.90
2018-10-07T02:13:13.710Z,99.90
2018-10-07T02:15:50.033Z,99.90
2018-10-07T02:20:55.983Z,99.90
2018-10-07T02:23:29.833Z,99.90
2018-10-07T02:26:06.355Z,99.90
2018-10-07T02:28:40.013Z,99.90
2018-10-07T02:31:14.948Z,99.90
2018-10-07T02:33:48.782Z,99.90
2018-10-07T02:39:14.359Z,99.90
2018-10-07T02:41:50.095Z,99.90
2018-10-07T02:44:22.384Z,99.90
2018-10-07T02:48:15.339Z,99.90
2018-10-07T02:50:58.235Z,99.90
2018-10-07T02:53:38.536Z,99.90
2018-10-07T02:59:07.619Z,99.90
2018-10-07T03:01:43.257Z,99.90
2018-10-07T03:04:19.080Z,99.90
2018-10-07T03:07:01.674Z,99.90
2018-10-07T03:22:57.018Z,99.90
2018-10-07T03:26:32.423Z,99.90
2018-10-07T03:29:08.949Z,99.90
2018-10-07T03:31:47.911Z,99.90
2018-10-07T03:37:36.902Z,99.90
2018-10-07T03:40:19.187Z,99.90
2018-10-07T03:42:54.914Z,99.90
2018-10-07T03:45:27.693Z,99.90
2018-10-07T03:47:57.718Z,99.90
2018-10-07T03:50:30.847Z,99.90
2018-10-07T03:53:14.135Z,99.90
2018-10-07T03:58:52.729Z,99.90
2018-10-07T04:01:29.236Z,99.90
2018-10-07T04:04:00.398Z,99.90
2018-10-07T04:09:22.904Z,99.90
2018-10-07T04:14:55.950Z,99.90
2018-10-07T04:17:36.371Z,99.90
2018-10-07T04:20:23.745Z,99.90
2018-10-07T04:23:15.316Z,99.90
2018-10-07T04:25:50.704Z,99.90
2018-10-07T04:28:27.310Z,99.90
2018-10-07T04:30:59.553Z,99.90
2018-10-07T04:39:30.956Z,99.90
2018-10-07T04:42:02.831Z,99.90
2018-10-07T04:44:40.009Z,99.90
2018-10-07T04:47:13.555Z,99.90
2018-10-07T04:49:48.142Z,99.90
2018-10-07T04:58:18.693Z,99.90
2018-10-07T05:00:59.835Z,99.90
2018-10-07T05:03:33.341Z,99.90
2018-10-07T05:06:07.112Z,99.90
2018-10-07T05:11:24.393Z,99.90
2018-10-07T05:13:59.147Z,99.90
2018-10-07T05:16:43.202Z,99.90
2018-10-07T05:19:15.846Z,99.90
2018-10-07T05:21:47.339Z,99.90
2018-10-07T05:24:17.104Z,99.90
2018-10-07T05:26:49.608Z,99.90
2018-10-07T05:29:23.292Z,99.90
2018-10-07T05:31:56.530Z,99.90
2018-10-07T05:34:27.279Z,99.90
2018-10-07T05:37:00.402Z,99.90
2018-10-07T05:39:32.762Z,99.90
2018-10-07T05:42:06.797Z,99.90
2018-10-07T05:44:48.142Z,99.90
2018-10-07T05:47:19.989Z,99.90
2018-10-07T05:49:50.567Z,99.90
2018-10-07T05:52:28.431Z,99.90
2018-10-07T05:55:24.516Z,99.90
2018-10-07T05:58:01.104Z,99.90
2018-10-07T06:00:41.409Z,99.90
2018-10-07T06:03:21.721Z,99.90
2018-10-07T06:05:53.458Z,99.90
2018-10-07T06:08:25.110Z,99.90
2018-10-07T06:10:54.613Z,99.90
2018-10-07T06:13:27.336Z,99.90
2018-10-07T06:16:06.171Z,99.90
2018-10-07T06:18:36.967Z,99.90
2018-10-07T07:09:42.223Z,99.90
2018-10-07T07:12:16.333Z,99.90
2018-10-07T07:14:48.998Z,99.90
2018-10-07T07:17:19.664Z,99.90
2018-10-07T07:19:50.000Z,99.90
2018-10-07T07:22:22.756Z,99.90
2018-10-07T07:24:55.706Z,99.90
2018-10-07T07:27:29.518Z,99.90
2018-10-07T07:30:08.150Z,99.90
2018-10-07T07:32:39.515Z,99.90
2018-10-07T07:35:09.714Z,99.90
2018-10-07T07:37:43.951Z,99.90
2018-10-07T07:43:52.460Z,99.90
2018-10-07T07:46:25.106Z,99.90
2018-10-07T07:48:55.329Z,99.90
2018-10-07T07:54:34.990Z,99.90
2018-10-07T07:57:23.337Z,99.90
2018-10-07T08:09:35.773Z,99.90
2018-10-07T08:33:51.209Z,99.90
2018-10-07T08:36:47.496Z,99.90
2018-10-07T08:39:28.009Z,99.90
2018-10-07T08:42:03.141Z,99.90
2018-10-07T08:53:52.325Z,99.90
2018-10-07T08:56:26.317Z,99.90
2018-10-07T08:59:09.176Z,99.90
2018-10-07T09:04:46.800Z,99.90
2018-10-07T09:07:37.119Z,99.90
2018-10-07T09:10:48.586Z,99.90
2018-10-07T09:44:53.683Z,99.90
2018-10-07T09:47:24.594Z,99.90
2018-10-07T09:50:03.478Z,99.90
2018-10-07T09:52:33.881Z,99.90
2018-10-07T09:55:03.606Z,99.90
2018-10-07T09:57:33.831Z,99.90
2018-10-07T10:00:02.584Z,99.90
2018-10-07T10:02:33.628Z,99.90
2018-10-07T10:05:15.965Z,99.90
2018-10-07T10:10:29.113Z,99.90
2018-10-07T10:12:58.955Z,99.90
2018-10-07T10:15:29.953Z,99.90
2018-10-07T10:18:06.667Z,99.90
2018-10-07T10:20:48.687Z,99.90
2018-10-07T10:23:32.734Z,99.90
2018-10-07T10:26:22.224Z,99.90
2018-10-07T10:29:04.702Z,99.90
2018-10-07T10:32:44.573Z,99.90
2018-10-07T10:35:28.122Z,99.90
2018-10-07T10:40:09.329Z,99.90
2018-10-07T10:42:51.309Z,99.90
2018-10-07T10:45:36.787Z,99.90
2018-10-07T10:48:23.596Z,99.90
2018-10-07T10:51:17.109Z,99.90
2018-10-07T10:53:54.609Z,99.90
2018-10-07T10:56:33.885Z,99.90
2018-10-07T10:59:09.487Z,99.90
2018-10-07T11:01:46.664Z,99.90
2018-10-07T11:04:22.186Z,99.90
2018-10-07T11:07:02.991Z,99.90
2018-10-07T11:11:43.895Z,99.90
2018-10-07T11:17:35.954Z,99.90
2018-10-07T11:20:34.789Z,99.90
2018-10-07T11:35:18.368Z,99.90
2018-10-07T11:37:59.205Z,99.90
2018-10-07T11:46:30.298Z,99.90
2018-10-07T11:49:15.780Z,99.90
2018-10-07T11:55:47.033Z,99.90
2018-10-07T11:58:15.924Z,99.90
2018-10-07T12:00:46.050Z,99.90
2018-10-07T12:03:15.860Z,99.90
2018-10-07T12:05:45.583Z,99.30
2018-10-07T12:08:14.811Z,99.90
2018-10-07T12:10:44.030Z,99.90
2018-10-07T12:13:13.511Z,99.90
2018-10-07T12:15:42.766Z,99.40
2018-10-07T12:18:14.612Z,99.80
2018-10-07T12:20:43.533Z,98.90
2018-10-07T12:23:13.414Z,98.40
2018-10-07T12:25:43.384Z,97.80
2018-10-07T12:28:12.387Z,95.50
2018-10-07T12:30:41.239Z,96.10
2018-10-07T12:33:09.715Z,96.60
2018-10-07T12:35:38.337Z,96.40
2018-10-07T12:38:13.785Z,98.30
2018-10-07T12:40:42.267Z,98.80
2018-10-07T12:43:11.080Z,98.20
2018-10-07T12:45:39.937Z,97.90
2018-10-07T12:48:08.757Z,96.80
2018-10-07T12:50:40.361Z,96.10
2018-10-07T12:53:08.995Z,94.40
2018-10-07T12:55:37.577Z,93.70
2018-10-07T12:58:06.232Z,91.30
2018-10-07T13:00:34.816Z,91.00
2018-10-07T13:03:03.484Z,91.60
2018-10-07T13:05:32.135Z,81.90
2018-10-07T13:08:00.789Z,83.60
2018-10-07T13:10:29.657Z,81.80
2018-10-07T13:12:58.295Z,82.50
2018-10-07T13:15:26.849Z,79.10
2018-10-07T13:17:55.446Z,78.60
2018-10-07T13:20:24.014Z,89.40
2018-10-07T13:22:52.901Z,92.80
2018-10-07T13:25:21.449Z,94.90
2018-10-07T13:27:50.144Z,92.40
2018-10-07T13:30:23.761Z,90.60
2018-10-07T13:32:52.522Z,87.50
2018-10-07T13:35:21.416Z,86.10
2018-10-07T13:37:50.341Z,83.50
2018-10-07T13:40:19.950Z,83.30
2018-10-07T13:42:50.770Z,83.10
2018-10-07T13:45:19.779Z,85.90
2018-10-07T13:47:48.775Z,91.20
2018-10-07T13:50:18.813Z,91.70
2018-10-07T13:52:48.995Z,95.20
2018-10-07T13:55:19.140Z,92.60
2018-10-07T13:57:48.694Z,94.70
2018-10-07T14:00:22.228Z,94.20
2018-10-07T14:02:53.105Z,93.20
2018-10-07T14:05:22.770Z,92.60
2018-10-07T14:07:54.014Z,92.80
2018-10-07T14:10:23.109Z,94.40
2018-10-07T14:12:52.018Z,93.40
2018-10-07T14:15:26.906Z,93.40
2018-10-07T14:18:05.289Z,93.10
2018-10-07T14:20:33.958Z,90.50
2018-10-07T14:23:02.984Z,90.50
2018-10-07T14:25:32.990Z,89.20
2018-10-07T14:28:01.797Z,83.70
2018-10-07T14:30:30.455Z,81.30
2018-10-07T14:32:59.449Z,80.00
2018-10-07T14:35:35.277Z,75.20
2018-10-07T14:38:04.169Z,73.10
2018-10-07T14:40:33.841Z,72.80
2018-10-07T14:43:02.625Z,73.40
2018-10-07T14:45:31.544Z,79.20
2018-10-07T14:48:01.327Z,81.20
2018-10-07T14:50:44.127Z,77.60
2018-10-07T14:56:08.570Z,90.00
2018-10-07T14:58:50.694Z,93.20
2018-10-07T15:01:19.537Z,94.10
2018-10-07T15:03:49.884Z,94.70
2018-10-07T15:06:18.932Z,95.60
2018-10-07T15:08:50.024Z,96.00
2018-10-07T15:11:18.948Z,96.70
2018-10-07T15:13:47.834Z,96.80
2018-10-07T15:50:32.468Z,99.90
2018-10-07T15:53:01.459Z,99.90
2018-10-07T15:55:41.064Z,99.90
2018-10-07T15:58:09.606Z,99.90
2018-10-07T16:00:41.766Z,99.90
2018-10-07T16:03:10.904Z,99.90
2018-10-07T16:05:39.608Z,99.90
2018-10-07T16:08:27.817Z,99.90
2018-10-07T16:10:58.036Z,99.90
2018-10-07T16:13:26.525Z,99.90
2018-10-07T16:15:55.164Z,99.90
2018-10-07T16:18:24.098Z,99.90
2018-10-07T16:20:55.855Z,99.90
2018-10-07T16:23:24.793Z,99.90
2018-10-07T16:25:54.850Z,99.90
2018-10-07T16:28:23.749Z,99.90
2018-10-07T16:30:52.657Z,99.90
2018-10-07T16:33:21.517Z,99.90
2018-10-07T16:35:50.947Z,99.90
2018-10-07T16:38:20.659Z,99.90
2018-10-07T16:40:49.645Z,99.90
2018-10-07T16:43:18.261Z,99.90
2018-10-07T16:45:49.813Z,99.90
2018-10-07T16:48:18.611Z,99.90
2018-10-07T16:50:51.869Z,99.90
2018-10-07T16:53:21.422Z,99.90
2018-10-07T16:55:51.957Z,99.90
2018-10-07T17:00:57.103Z,99.90
2018-10-07T17:03:25.706Z,99.90
2018-10-07T17:05:54.453Z,99.90
2018-10-07T17:08:24.702Z,99.90
2018-10-07T17:10:55.057Z,99.90
2018-10-07T17:13:24.996Z,99.90
2018-10-07T17:15:53.695Z,99.90
2018-10-07T17:18:24.708Z,99.90
2018-10-07T17:20:53.397Z,99.90
2018-10-07T17:23:24.795Z,99.90
2018-10-07T17:25:56.532Z,99.90
2018-10-07T17:28:34.748Z,99.90
2018-10-07T17:31:06.425Z,99.90
2018-10-07T17:33:37.839Z,99.90
2018-10-07T17:36:19.306Z,99.90
2018-10-07T17:38:49.345Z,99.90
2018-10-07T17:41:18.193Z,99.90
2018-10-07T17:43:53.118Z,99.90
2018-10-07T17:46:23.033Z,99.90
2018-10-07T17:49:04.128Z,99.90
2018-10-07T17:52:08.602Z,99.90
2018-10-07T17:55:08.938Z,99.90
2018-10-07T17:57:48.792Z,99.90
2018-10-07T18:03:23.652Z,99.90
2018-10-07T18:06:04.524Z,99.90
2018-10-07T18:08:43.505Z,99.90
2018-10-07T18:18:01.059Z,99.90
2018-10-07T18:20:45.436Z,99.90
2018-10-07T18:23:43.514Z,99.90
2018-10-07T18:49:05.745Z,99.90
2018-10-07T18:51:39.896Z,99.90
2018-10-07T20:03:22.102Z,99.90
2018-10-07T22:09:32.450Z,99.90
2018-10-07T22:16:17.387Z,99.90
2018-10-07T22:19:07.148Z,99.90
2018-10-07T22:28:09.264Z,99.90
2018-10-07T22:37:23.178Z,99.90
2018-10-07T22:46:33.196Z,99.90
2018-10-07T23:02:05.569Z,99.90
